sensor_id;sensor_type;location;lat;lon;timestamp;pressure;altitude;pressure_sealevel;temperature;humidity
54308;BME280;40208;39.778;2.710;2023-02-07T00:01:56;101941.91;;;10.45;100.00
54308;BME280;40208;39.778;2.710;2023-02-07T00:04:41;101930.19;;;10.52;100.00
54308;BME280;40208;39.778;2.710;2023-02-07T00:07:26;101929.56;;;10.44;100.00
54308;BME280;40208;39.778;2.710;2023-02-07T00:10:11;101920.75;;;10.42;100.00
54308;BME280;40208;39.778;2.710;2023-02-07T00:12:55;101918.88;;;10.46;100.00
54308;BME280;40208;39.778;2.710;2023-02-07T00:15:40;101924.63;;;10.63;100.00
54308;BME280;40208;39.778;2.710;2023-02-07T00:18:25;101921.03;;;10.64;100.00
54308;BME280;40208;39.778;2.710;2023-02-07T00:21:10;101920.41;;;10.54;100.00
54308;BME280;40208;39.778;2.710;2023-02-07T00:23:56;101907.31;;;10.48;100.00
54308;BME280;40208;39.778;2.710;2023-02-07T00:26:40;101910.03;;;10.47;100.00
54308;BME280;40208;39.778;2.710;2023-02-07T00:29:25;101910.13;;;10.42;100.00
54308;BME280;40208;39.778;2.710;2023-02-07T00:32:09;101907.34;;;10.47;100.00
54308;BME280;40208;39.778;2.710;2023-02-07T00:34:53;101910.84;;;10.49;100.00
54308;BME280;40208;39.778;2.710;2023-02-07T00:37:38;101912.72;;;10.44;100.00
54308;BME280;40208;39.778;2.710;2023-02-07T00:40:22;101908.38;;;10.41;100.00
54308;BME280;40208;39.778;2.710;2023-02-07T00:43:07;101897.00;;;10.36;100.00
54308;BME280;40208;39.778;2.710;2023-02-07T00:45:51;101900.34;;;10.44;100.00
54308;BME280;40208;39.778;2.710;2023-02-07T00:48:36;101882.53;;;10.49;100.00
54308;BME280;40208;39.778;2.710;2023-02-07T00:51:23;101889.75;;;10.44;100.00
54308;BME280;40208;39.778;2.710;2023-02-07T00:54:08;101875.44;;;10.48;100.00
54308;BME280;40208;39.778;2.710;2023-02-07T00:56:53;101889.69;;;10.46;100.00
54308;BME280;40208;39.778;2.710;2023-02-07T00:59:37;101880.00;;;10.43;100.00
54308;BME280;40208;39.778;2.710;2023-02-07T01:02:21;101867.81;;;10.36;100.00
54308;BME280;40208;39.778;2.710;2023-02-07T01:05:06;101868.50;;;10.44;100.00
54308;BME280;40208;39.778;2.710;2023-02-07T01:07:50;101873.13;;;10.36;100.00
54308;BME280;40208;39.778;2.710;2023-02-07T01:10:37;101877.47;;;10.38;100.00
54308;BME280;40208;39.778;2.710;2023-02-07T01:13:22;101859.03;;;10.34;100.00
54308;BME280;40208;39.778;2.710;2023-02-07T01:16:06;101874.94;;;10.34;100.00
54308;BME280;40208;39.778;2.710;2023-02-07T01:18:51;101883.78;;;10.34;100.00
54308;BME280;40208;39.778;2.710;2023-02-07T01:21:36;101873.13;;;10.36;100.00
54308;BME280;40208;39.778;2.710;2023-02-07T01:24:21;101867.72;;;10.39;100.00
54308;BME280;40208;39.778;2.710;2023-02-07T01:27:05;101877.59;;;10.34;100.00
54308;BME280;40208;39.778;2.710;2023-02-07T01:29:50;101864.00;;;10.46;100.00
54308;BME280;40208;39.778;2.710;2023-02-07T01:32:35;101857.06;;;10.42;100.00
54308;BME280;40208;39.778;2.710;2023-02-07T01:35:19;101846.31;;;10.47;100.00
54308;BME280;40208;39.778;2.710;2023-02-07T01:38:04;101849.16;;;10.39;100.00
54308;BME280;40208;39.778;2.710;2023-02-07T01:40:48;101835.13;;;10.35;100.00
54308;BME280;40208;39.778;2.710;2023-02-07T01:43:33;101822.75;;;10.34;100.00
54308;BME280;40208;39.778;2.710;2023-02-07T01:46:18;101839.63;;;10.32;100.00
54308;BME280;40208;39.778;2.710;2023-02-07T01:49:06;101837.06;;;10.27;100.00
54308;BME280;40208;39.778;2.710;2023-02-07T01:51:56;101831.88;;;10.23;100.00
54308;BME280;40208;39.778;2.710;2023-02-07T01:54:43;101831.97;;;10.19;100.00
54308;BME280;40208;39.778;2.710;2023-02-07T01:57:28;101837.28;;;10.19;100.00
54308;BME280;40208;39.778;2.710;2023-02-07T02:00:14;101831.97;;;10.19;100.00
54308;BME280;40208;39.778;2.710;2023-02-07T02:02:59;101830.06;;;10.25;100.00
54308;BME280;40208;39.778;2.710;2023-02-07T02:05:44;101821.88;;;10.34;100.00
54308;BME280;40208;39.778;2.710;2023-02-07T02:08:29;101828.06;;;10.34;100.00
54308;BME280;40208;39.778;2.710;2023-02-07T02:40:39;101769.50;;;10.40;100.00
54308;BME280;40208;39.778;2.710;2023-02-07T02:43:36;101767.81;;;10.38;100.00
54308;BME280;40208;39.778;2.710;2023-02-07T02:46:27;101764.47;;;10.31;100.00
54308;BME280;40208;39.778;2.710;2023-02-07T02:49:14;101784.84;;;10.29;100.00
54308;BME280;40208;39.778;2.710;2023-02-07T02:51:59;101781.41;;;10.26;100.00
54308;BME280;40208;39.778;2.710;2023-02-07T02:54:44;101774.31;;;10.26;100.00
54308;BME280;40208;39.778;2.710;2023-02-07T03:06:28;101773.66;;;10.18;100.00
54308;BME280;40208;39.778;2.710;2023-02-07T03:17:41;101767.41;;;10.21;100.00
54308;BME280;40208;39.778;2.710;2023-02-07T03:20:28;101764.81;;;10.17;100.00
54308;BME280;40208;39.778;2.710;2023-02-07T03:23:15;101760.47;;;10.15;100.00
54308;BME280;40208;39.778;2.710;2023-02-07T03:26:00;101755.13;;;10.16;100.00
54308;BME280;40208;39.778;2.710;2023-02-07T03:28:45;101748.97;;;10.16;100.00
54308;BME280;40208;39.778;2.710;2023-02-07T03:31:31;101728.69;;;10.13;100.00
54308;BME280;40208;39.778;2.710;2023-02-07T03:34:19;101735.59;;;10.19;100.00
54308;BME280;40208;39.778;2.710;2023-02-07T03:37:07;101750.69;;;10.17;100.00
54308;BME280;40208;39.778;2.710;2023-02-07T03:39:53;101739.13;;;10.19;100.00
54308;BME280;40208;39.778;2.710;2023-02-07T03:42:46;101730.38;;;10.16;100.00
54308;BME280;40208;39.778;2.710;2023-02-07T03:45:33;101734.00;;;10.13;100.00
54308;BME280;40208;39.778;2.710;2023-02-07T03:48:18;101734.88;;;10.14;100.00
54308;BME280;40208;39.778;2.710;2023-02-07T03:51:02;101731.38;;;10.12;100.00
54308;BME280;40208;39.778;2.710;2023-02-07T03:53:47;101741.06;;;10.13;100.00
54308;BME280;40208;39.778;2.710;2023-02-07T03:56:32;101739.25;;;10.15;100.00
54308;BME280;40208;39.778;2.710;2023-02-07T03:59:17;101733.06;;;10.14;100.00
54308;BME280;40208;39.778;2.710;2023-02-07T04:02:01;101732.91;;;10.21;100.00
54308;BME280;40208;39.778;2.710;2023-02-07T04:04:46;101741.91;;;10.15;100.00
54308;BME280;40208;39.778;2.710;2023-02-07T04:07:31;101743.78;;;10.11;100.00
54308;BME280;40208;39.778;2.710;2023-02-07T04:10:15;101746.44;;;10.11;100.00
54308;BME280;40208;39.778;2.710;2023-02-07T04:13:00;101754.03;;;10.24;100.00
54308;BME280;40208;39.778;2.710;2023-02-07T04:15:45;101745.84;;;10.33;100.00
54308;BME280;40208;39.778;2.710;2023-02-07T04:18:29;101755.69;;;10.28;100.00
54308;BME280;40208;39.778;2.710;2023-02-07T04:21:13;101739.75;;;10.29;100.00
54308;BME280;40208;39.778;2.710;2023-02-07T04:23:58;101733.56;;;10.30;100.00
54308;BME280;40208;39.778;2.710;2023-02-07T04:26:42;101735.63;;;10.17;100.00
54308;BME280;40208;39.778;2.710;2023-02-07T04:29:26;101736.78;;;10.09;100.00
54308;BME280;40208;39.778;2.710;2023-02-07T04:32:11;101741.19;;;10.08;100.00
54308;BME280;40208;39.778;2.710;2023-02-07T04:34:56;101742.16;;;10.06;100.00
54308;BME280;40208;39.778;2.710;2023-02-07T04:37:40;101746.69;;;10.02;100.00
54308;BME280;40208;39.778;2.710;2023-02-07T04:40:25;101743.22;;;9.98;100.00
54308;BME280;40208;39.778;2.710;2023-02-07T04:43:09;101735.50;;;9.91;100.00
54308;BME280;40208;39.778;2.710;2023-02-07T04:45:54;101737.28;;;9.90;100.00
54308;BME280;40208;39.778;2.710;2023-02-07T04:48:38;101716.94;;;9.91;100.00
54308;BME280;40208;39.778;2.710;2023-02-07T04:51:23;101724.91;;;9.89;100.00
54308;BME280;40208;39.778;2.710;2023-02-07T04:54:07;101726.69;;;9.89;100.00
54308;BME280;40208;39.778;2.710;2023-02-07T04:56:52;101746.09;;;9.91;100.00
54308;BME280;40208;39.778;2.710;2023-02-07T04:59:36;101734.53;;;9.93;100.00
54308;BME280;40208;39.778;2.710;2023-02-07T05:02:21;101734.50;;;9.95;100.00
54308;BME280;40208;39.778;2.710;2023-02-07T05:05:06;101739.75;;;9.96;100.00
54308;BME280;40208;39.778;2.710;2023-02-07T05:07:51;101739.91;;;9.92;100.00
54308;BME280;40208;39.778;2.710;2023-02-07T05:10:35;101738.22;;;9.88;100.00
54308;BME280;40208;39.778;2.710;2023-02-07T05:13:21;101724.09;;;9.87;100.00
54308;BME280;40208;39.778;2.710;2023-02-07T05:16:05;101718.75;;;9.89;100.00
54308;BME280;40208;39.778;2.710;2023-02-07T05:18:50;101722.41;;;9.85;100.00
54308;BME280;40208;39.778;2.710;2023-02-07T05:21:34;101731.34;;;9.81;100.00
54308;BME280;40208;39.778;2.710;2023-02-07T05:24:19;101728.81;;;9.76;100.00
54308;BME280;40208;39.778;2.710;2023-02-07T05:27:04;101732.44;;;9.73;100.00
54308;BME280;40208;39.778;2.710;2023-02-07T05:29:48;101738.69;;;9.71;100.00
54308;BME280;40208;39.778;2.710;2023-02-07T05:32:32;101735.13;;;9.70;100.00
54308;BME280;40208;39.778;2.710;2023-02-07T05:35:36;101740.44;;;9.70;100.00
54308;BME280;40208;39.778;2.710;2023-02-07T05:38:21;101749.31;;;9.69;100.00
54308;BME280;40208;39.778;2.710;2023-02-07T05:41:05;101739.41;;;9.77;100.00
54308;BME280;40208;39.778;2.710;2023-02-07T05:43:50;101742.28;;;9.68;100.00
54308;BME280;40208;39.778;2.710;2023-02-07T05:46:34;101750.03;;;9.76;100.00
54308;BME280;40208;39.778;2.710;2023-02-07T05:49:19;101746.81;;;9.63;100.00
54308;BME280;40208;39.778;2.710;2023-02-07T05:52:03;101752.28;;;9.57;100.00
54308;BME280;40208;39.778;2.710;2023-02-07T05:54:48;101745.34;;;9.51;100.00
54308;BME280;40208;39.778;2.710;2023-02-07T05:57:33;101762.28;;;9.46;100.00
54308;BME280;40208;39.778;2.710;2023-02-07T06:00:17;101760.66;;;9.40;100.00
54308;BME280;40208;39.778;2.710;2023-02-07T06:03:02;101755.56;;;9.31;100.00
54308;BME280;40208;39.778;2.710;2023-02-07T06:05:47;101748.59;;;9.28;100.00
54308;BME280;40208;39.778;2.710;2023-02-07T06:08:31;101761.00;;;9.25;100.00
54308;BME280;40208;39.778;2.710;2023-02-07T06:11:16;101765.47;;;9.23;100.00
54308;BME280;40208;39.778;2.710;2023-02-07T06:14:00;101767.25;;;9.22;100.00
54308;BME280;40208;39.778;2.710;2023-02-07T06:16:45;101770.06;;;9.16;100.00
54308;BME280;40208;39.778;2.710;2023-02-07T06:19:29;101767.53;;;9.11;100.00
54308;BME280;40208;39.778;2.710;2023-02-07T06:22:16;101774.66;;;9.08;100.00
54308;BME280;40208;39.778;2.710;2023-02-07T06:25:00;101769.53;;;9.02;100.00
54308;BME280;40208;39.778;2.710;2023-02-07T06:27:45;101768.72;;;8.97;100.00
54308;BME280;40208;39.778;2.710;2023-02-07T06:30:30;101766.97;;;8.97;100.00
54308;BME280;40208;39.778;2.710;2023-02-07T06:33:14;101774.06;;;8.95;100.00
54308;BME280;40208;39.778;2.710;2023-02-07T06:35:59;101764.38;;;8.94;100.00
54308;BME280;40208;39.778;2.710;2023-02-07T06:38:43;101763.50;;;8.94;100.00
54308;BME280;40208;39.778;2.710;2023-02-07T06:41:28;101758.38;;;8.87;100.00
54308;BME280;40208;39.778;2.710;2023-02-07T06:44:12;101764.56;;;8.85;100.00
54308;BME280;40208;39.778;2.710;2023-02-07T06:46:57;101761.97;;;8.83;100.00
54308;BME280;40208;39.778;2.710;2023-02-07T06:49:42;101766.34;;;8.84;100.00
54308;BME280;40208;39.778;2.710;2023-02-07T06:52:26;101764.56;;;8.85;100.00
54308;BME280;40208;39.778;2.710;2023-02-07T06:55:11;101767.22;;;8.85;100.00
54308;BME280;40208;39.778;2.710;2023-02-07T06:57:55;101761.13;;;8.83;100.00
54308;BME280;40208;39.778;2.710;2023-02-07T07:00:40;101755.75;;;8.86;100.00
54308;BME280;40208;39.778;2.710;2023-02-07T07:03:25;101766.44;;;8.81;100.00
54308;BME280;40208;39.778;2.710;2023-02-07T07:06:12;101747.91;;;8.81;100.00
54308;BME280;40208;39.778;2.710;2023-02-07T07:08:56;101746.09;;;8.83;100.00
54308;BME280;40208;39.778;2.710;2023-02-07T07:11:41;101752.28;;;8.82;100.00
54308;BME280;40208;39.778;2.710;2023-02-07T07:14:27;101749.72;;;8.78;100.00
54308;BME280;40208;39.778;2.710;2023-02-07T07:17:12;101748.13;;;8.70;100.00
54308;BME280;40208;39.778;2.710;2023-02-07T07:19:58;101747.34;;;8.67;100.00
54308;BME280;40208;39.778;2.710;2023-02-07T07:22:43;101734.22;;;8.61;100.00
54308;BME280;40208;39.778;2.710;2023-02-07T07:25:27;101746.47;;;8.66;100.00
54308;BME280;40208;39.778;2.710;2023-02-07T07:28:12;101749.78;;;8.76;100.00
54308;BME280;40208;39.778;2.710;2023-02-07T07:31:03;101747.81;;;8.84;100.00
54308;BME280;40208;39.778;2.710;2023-02-07T07:33:48;101750.47;;;8.84;100.00
54308;BME280;40208;39.778;2.710;2023-02-07T07:36:33;101746.97;;;8.82;100.00
54308;BME280;40208;39.778;2.710;2023-02-07T07:39:17;101747.91;;;8.81;100.00
54308;BME280;40208;39.778;2.710;2023-02-07T07:42:04;101745.25;;;8.81;100.00
54308;BME280;40208;39.778;2.710;2023-02-07T07:44:48;101750.56;;;8.81;100.00
54308;BME280;40208;39.778;2.710;2023-02-07T07:47:33;101740.06;;;8.77;100.00
54308;BME280;40208;39.778;2.710;2023-02-07T07:50:18;101738.25;;;8.79;100.00
54308;BME280;40208;39.778;2.710;2023-02-07T07:53:02;101739.09;;;8.81;100.00
54308;BME280;40208;39.778;2.710;2023-02-07T07:55:51;101737.31;;;8.81;100.00
54308;BME280;40208;39.778;2.710;2023-02-07T07:58:36;101745.16;;;8.86;100.00
54308;BME280;40208;39.778;2.710;2023-02-07T08:01:20;101746.00;;;8.88;100.00
54308;BME280;40208;39.778;2.710;2023-02-07T08:04:05;101744.94;;;8.95;100.00
54308;BME280;40208;39.778;2.710;2023-02-07T08:06:50;101741.19;;;9.04;100.00
54308;BME280;40208;39.778;2.710;2023-02-07T08:09:34;101737.47;;;9.12;100.00
54308;BME280;40208;39.778;2.710;2023-02-07T08:12:19;101733.94;;;9.13;100.00
54308;BME280;40208;39.778;2.710;2023-02-07T08:15:03;101737.38;;;9.17;100.00
54308;BME280;40208;39.778;2.710;2023-02-07T08:17:50;101736.44;;;9.18;100.00
54308;BME280;40208;39.778;2.710;2023-02-07T08:20:35;101732.81;;;9.22;100.00
54308;BME280;40208;39.778;2.710;2023-02-07T08:23:20;101738.03;;;9.25;100.00
54308;BME280;40208;39.778;2.710;2023-02-07T08:26:05;101743.22;;;9.30;100.00
54308;BME280;40208;39.778;2.710;2023-02-07T08:28:50;101742.34;;;9.31;100.00
54308;BME280;40208;39.778;2.710;2023-02-07T08:31:35;101746.69;;;9.33;100.00
54308;BME280;40208;39.778;2.710;2023-02-07T08:34:20;101735.97;;;9.38;100.00
54308;BME280;40208;39.778;2.710;2023-02-07T08:37:09;101740.25;;;9.44;100.00
54308;BME280;40208;39.778;2.710;2023-02-07T08:39:54;101733.88;;;9.51;100.00
54308;BME280;40208;39.778;2.710;2023-02-07T08:42:39;101734.63;;;9.56;100.00
54308;BME280;40208;39.778;2.710;2023-02-07T08:45:23;101733.66;;;9.60;100.00
54308;BME280;40208;39.778;2.710;2023-02-07T08:48:08;101741.47;;;9.65;100.00
54308;BME280;40208;39.778;2.710;2023-02-07T08:50:52;101744.00;;;9.69;100.00
54308;BME280;40208;39.778;2.710;2023-02-07T08:53:37;101743.81;;;9.77;100.00
54308;BME280;40208;39.778;2.710;2023-02-07T08:56:22;101744.69;;;9.77;100.00
54308;BME280;40208;39.778;2.710;2023-02-07T08:59:06;101748.84;;;9.88;100.00
54308;BME280;40208;39.778;2.710;2023-02-07T09:01:51;101745.81;;;10.02;100.00
54308;BME280;40208;39.778;2.710;2023-02-07T09:04:35;101747.91;;;10.22;100.00
54308;BME280;40208;39.778;2.710;2023-02-07T09:07:20;101743.84;;;10.41;100.00
54308;BME280;40208;39.778;2.710;2023-02-07T09:10:05;101747.03;;;10.54;100.00
54308;BME280;40208;39.778;2.710;2023-02-07T09:12:51;101739.72;;;10.60;100.00
54308;BME280;40208;39.778;2.710;2023-02-07T09:15:35;101751.09;;;10.66;100.00
54308;BME280;40208;39.778;2.710;2023-02-07T09:18:20;101746.69;;;10.65;100.00
54308;BME280;40208;39.778;2.710;2023-02-07T09:21:04;101752.00;;;10.65;100.00
54308;BME280;40208;39.778;2.710;2023-02-07T09:23:49;101749.34;;;10.65;100.00
54308;BME280;40208;39.778;2.710;2023-02-07T09:26:34;101756.41;;;10.66;100.00
54308;BME280;40208;39.778;2.710;2023-02-07T09:29:18;101769.69;;;10.66;100.00
54308;BME280;40208;39.778;2.710;2023-02-07T09:32:05;101766.19;;;10.64;100.00
54308;BME280;40208;39.778;2.710;2023-02-07T09:34:49;101762.63;;;10.65;100.00
54308;BME280;40208;39.778;2.710;2023-02-07T09:37:36;101761.50;;;10.72;100.00
54308;BME280;40208;39.778;2.710;2023-02-07T09:40:20;101753.38;;;10.78;100.00
54308;BME280;40208;39.778;2.710;2023-02-07T09:45:55;101754.81;;;10.88;100.00
54308;BME280;40208;39.778;2.710;2023-02-07T09:48:44;101757.25;;;10.96;100.00
54308;BME280;40208;39.778;2.710;2023-02-07T09:51:31;101749.06;;;11.03;100.00
54308;BME280;40208;39.778;2.710;2023-02-07T09:57:12;101743.13;;;11.22;100.00
54308;BME280;40208;39.778;2.710;2023-02-07T10:00:06;101731.28;;;11.32;100.00
54308;BME280;40208;39.778;2.710;2023-02-07T10:05:59;101720.75;;;11.81;100.00
54308;BME280;40208;39.778;2.710;2023-02-07T10:08:45;101711.88;;;12.07;100.00
54308;BME280;40208;39.778;2.710;2023-02-07T10:11:35;101705.66;;;12.32;100.00
54308;BME280;40208;39.778;2.710;2023-02-07T10:26:11;101697.06;;;13.36;100.00
54308;BME280;40208;39.778;2.710;2023-02-07T10:29:09;101690.06;;;13.54;100.00
54308;BME280;40208;39.778;2.710;2023-02-07T10:31:58;101696.69;;;13.87;100.00
54308;BME280;40208;39.778;2.710;2023-02-07T10:34:44;101707.63;;;14.01;100.00
54308;BME280;40208;39.778;2.710;2023-02-07T10:37:35;101706.69;;;14.21;100.00
54308;BME280;40208;39.778;2.710;2023-02-07T10:40:25;101699.38;;;14.26;100.00
54308;BME280;40208;39.778;2.710;2023-02-07T10:43:21;101705.88;;;14.39;100.00
54308;BME280;40208;39.778;2.710;2023-02-07T10:46:10;101714.66;;;14.62;100.00
54308;BME280;40208;39.778;2.710;2023-02-07T10:48:56;101726.56;;;14.93;100.00
54308;BME280;40208;39.778;2.710;2023-02-07T10:51:41;101725.78;;;15.08;100.00
54308;BME280;40208;39.778;2.710;2023-02-07T10:54:27;101736.91;;;15.18;100.00
54308;BME280;40208;39.778;2.710;2023-02-07T10:57:14;101737.03;;;15.34;100.00
54308;BME280;40208;39.778;2.710;2023-02-07T11:02:46;101747.88;;;15.65;100.00
54308;BME280;40208;39.778;2.710;2023-02-07T11:05:34;101750.06;;;15.76;100.00
54308;BME280;40208;39.778;2.710;2023-02-07T11:08:24;101743.19;;;15.71;100.00
54308;BME280;40208;39.778;2.710;2023-02-07T11:14:03;101743.56;;;15.63;100.00
54308;BME280;40208;39.778;2.710;2023-02-07T11:16:49;101751.81;;;15.58;100.00
54308;BME280;40208;39.778;2.710;2023-02-07T11:19:33;101741.13;;;15.41;100.00
54308;BME280;40208;39.778;2.710;2023-02-07T11:22:19;101735.59;;;15.26;100.00
54308;BME280;40208;39.778;2.710;2023-02-07T11:25:05;101740.81;;;15.11;100.00
54308;BME280;40208;39.778;2.710;2023-02-07T11:27:49;101740.41;;;15.01;100.00
54308;BME280;40208;39.778;2.710;2023-02-07T11:30:36;101741.00;;;14.89;100.00
54308;BME280;40208;39.778;2.710;2023-02-07T11:33:20;101735.66;;;14.89;100.00
54308;BME280;40208;39.778;2.710;2023-02-07T11:36:12;101742.28;;;14.80;100.00
54308;BME280;40208;39.778;2.710;2023-02-07T11:39:11;101738.28;;;14.71;100.00
54308;BME280;40208;39.778;2.710;2023-02-07T11:41:59;101746.06;;;14.57;100.00
54308;BME280;40208;39.778;2.710;2023-02-07T11:44:45;101741.13;;;14.48;100.00
54308;BME280;40208;39.778;2.710;2023-02-07T11:47:30;101727.00;;;14.44;100.00
54308;BME280;40208;39.778;2.710;2023-02-07T11:50:19;101722.72;;;14.21;100.00
54308;BME280;40208;39.778;2.710;2023-02-07T11:53:04;101715.22;;;14.10;100.00
54308;BME280;40208;39.778;2.710;2023-02-07T11:55:49;101716.47;;;14.02;100.00
54308;BME280;40208;39.778;2.710;2023-02-07T11:58:35;101714.88;;;13.97;100.00
54308;BME280;40208;39.778;2.710;2023-02-07T12:01:21;101710.47;;;13.96;100.00
54308;BME280;40208;39.778;2.710;2023-02-07T12:04:08;101699.16;;;13.91;100.00
54308;BME280;40208;39.778;2.710;2023-02-07T12:09:58;101706.97;;;13.96;100.00
54308;BME280;40208;39.778;2.710;2023-02-07T12:18:52;101708.63;;;13.98;100.00
54308;BME280;40208;39.778;2.710;2023-02-07T12:21:49;101704.63;;;13.88;100.00
54308;BME280;40208;39.778;2.710;2023-02-07T12:24:42;101691.69;;;13.79;100.00
54308;BME280;40208;39.778;2.710;2023-02-07T12:27:29;101683.59;;;13.81;100.00
54308;BME280;40208;39.778;2.710;2023-02-07T12:33:13;101677.59;;;13.75;100.00
54308;BME280;40208;39.778;2.710;2023-02-07T12:36:08;101659.28;;;13.68;100.00
54308;BME280;40208;39.778;2.710;2023-02-07T12:39:05;101666.88;;;13.56;100.00
54308;BME280;40208;39.778;2.710;2023-02-07T12:45:02;101677.28;;;13.42;100.00
54308;BME280;40208;39.778;2.710;2023-02-07T12:53:46;101665.47;;;13.27;100.00
54308;BME280;40208;39.778;2.710;2023-02-07T13:08:08;101661.91;;;13.05;100.00
54308;BME280;40208;39.778;2.710;2023-02-07T13:16:41;101694.34;;;12.94;100.00
54308;BME280;40208;39.778;2.710;2023-02-07T13:25:22;101708.41;;;12.76;100.00
54308;BME280;40208;39.778;2.710;2023-02-07T13:28:12;101705.00;;;12.72;100.00
54308;BME280;40208;39.778;2.710;2023-02-07T13:31:01;101691.06;;;12.65;100.00
54308;BME280;40208;39.778;2.710;2023-02-07T13:33:47;101692.78;;;12.66;100.00
54308;BME280;40208;39.778;2.710;2023-02-07T13:42:16;101683.53;;;12.53;100.00
54308;BME280;40208;39.778;2.710;2023-02-07T13:56:13;101694.47;;;12.22;100.00
54308;BME280;40208;39.778;2.710;2023-02-07T13:59:33;101697.25;;;12.19;100.00
54308;BME280;40208;39.778;2.710;2023-02-07T14:02:24;101706.28;;;12.15;100.00
54308;BME280;40208;39.778;2.710;2023-02-07T14:05:10;101699.44;;;12.07;100.00
54308;BME280;40208;39.778;2.710;2023-02-07T14:10:50;101699.06;;;12.18;100.00
54308;BME280;40208;39.778;2.710;2023-02-07T14:13:35;101710.00;;;12.11;100.00
54308;BME280;40208;39.778;2.710;2023-02-07T14:16:41;101716.13;;;12.13;100.00
54308;BME280;40208;39.778;2.710;2023-02-07T14:28:14;101718.59;;;11.94;100.00
54308;BME280;40208;39.778;2.710;2023-02-07T14:31:09;101738.28;;;11.88;100.00
54308;BME280;40208;39.778;2.710;2023-02-07T14:34:07;101716.22;;;11.84;100.00
54308;BME280;40208;39.778;2.710;2023-02-07T14:36:52;101705.66;;;11.81;100.00
54308;BME280;40208;39.778;2.710;2023-02-07T14:39:39;101722.28;;;11.90;100.00
54308;BME280;40208;39.778;2.710;2023-02-07T14:42:24;101727.63;;;11.88;100.00
54308;BME280;40208;39.778;2.710;2023-02-07T14:45:18;101722.31;;;11.88;100.00
54308;BME280;40208;39.778;2.710;2023-02-07T14:48:04;101736.47;;;11.88;100.00
54308;BME280;40208;39.778;2.710;2023-02-07T14:50:50;101735.66;;;11.86;100.00
54308;BME280;40208;39.778;2.710;2023-02-07T14:53:41;101742.72;;;11.87;100.00
54308;BME280;40208;39.778;2.710;2023-02-07T14:59:20;101742.75;;;11.86;100.00
54308;BME280;40208;39.778;2.710;2023-02-07T15:08:04;101744.47;;;11.88;100.00
54308;BME280;40208;39.778;2.710;2023-02-07T15:13:43;101763.28;;;11.82;100.00
54308;BME280;40208;39.778;2.710;2023-02-07T15:16:30;101762.19;;;11.90;100.00
54308;BME280;40208;39.778;2.710;2023-02-07T15:22:00;101769.88;;;11.97;100.00
54308;BME280;40208;39.778;2.710;2023-02-07T15:24:45;101774.00;;;12.06;100.00
54308;BME280;40208;39.778;2.710;2023-02-07T15:27:30;101774.06;;;12.04;100.00
54308;BME280;40208;39.778;2.710;2023-02-07T15:30:16;101763.81;;;11.94;100.00
54308;BME280;40208;39.778;2.710;2023-02-07T15:33:01;101773.78;;;11.87;100.00
54308;BME280;40208;39.778;2.710;2023-02-07T15:35:53;101788.81;;;11.88;100.00
54308;BME280;40208;39.778;2.710;2023-02-07T15:38:38;101774.50;;;11.92;100.00
54308;BME280;40208;39.778;2.710;2023-02-07T15:41:23;101766.50;;;11.92;100.00
54308;BME280;40208;39.778;2.710;2023-02-07T15:44:17;101770.03;;;11.93;100.00
54308;BME280;40208;39.778;2.710;2023-02-07T15:47:05;101761.31;;;11.89;100.00
54308;BME280;40208;39.778;2.710;2023-02-07T15:49:56;101760.41;;;11.88;100.00
54308;BME280;40208;39.778;2.710;2023-02-07T15:52:44;101771.13;;;11.87;100.00
54308;BME280;40208;39.778;2.710;2023-02-07T15:58:26;101771.88;;;11.91;100.00
54308;BME280;40208;39.778;2.710;2023-02-07T16:01:13;101764.97;;;11.85;100.00
54308;BME280;40208;39.778;2.710;2023-02-07T16:04:01;101765.88;;;11.84;100.00
54308;BME280;40208;39.778;2.710;2023-02-07T16:06:53;101772.13;;;11.83;100.00
54308;BME280;40208;39.778;2.710;2023-02-07T16:09:39;101767.66;;;11.83;100.00
54308;BME280;40208;39.778;2.710;2023-02-07T16:15:31;101779.53;;;11.73;100.00
54308;BME280;40208;39.778;2.710;2023-02-07T16:24:05;101789.50;;;11.66;100.00
54308;BME280;40208;39.778;2.710;2023-02-07T16:26:51;101792.28;;;11.63;100.00
54308;BME280;40208;39.778;2.710;2023-02-07T16:29:36;101796.06;;;11.56;100.00
54308;BME280;40208;39.778;2.710;2023-02-07T16:32:21;101793.94;;;11.67;100.00
54308;BME280;40208;39.778;2.710;2023-02-07T16:35:19;101801.13;;;11.64;100.00
54308;BME280;40208;39.778;2.710;2023-02-07T16:38:04;101799.59;;;11.57;100.00
54308;BME280;40208;39.778;2.710;2023-02-07T16:40:48;101802.25;;;11.57;100.00
54308;BME280;40208;39.778;2.710;2023-02-07T16:43:37;101805.91;;;11.53;100.00
54308;BME280;40208;39.778;2.710;2023-02-07T16:46:23;101813.97;;;11.51;100.00
54308;BME280;40208;39.778;2.710;2023-02-07T16:49:19;101818.50;;;11.48;100.00
54308;BME280;40208;39.778;2.710;2023-02-07T16:52:03;101816.84;;;11.43;100.00
54308;BME280;40208;39.778;2.710;2023-02-07T16:54:48;101824.88;;;11.42;100.00
54308;BME280;40208;39.778;2.710;2023-02-07T16:57:33;101818.59;;;11.44;100.00
54308;BME280;40208;39.778;2.710;2023-02-07T17:00:18;101816.06;;;11.41;100.00
54308;BME280;40208;39.778;2.710;2023-02-07T17:03:08;101815.97;;;11.43;100.00
54308;BME280;40208;39.778;2.710;2023-02-07T17:05:56;101814.41;;;11.37;100.00
54308;BME280;40208;39.778;2.710;2023-02-07T17:08:41;101821.56;;;11.35;100.00
54308;BME280;40208;39.778;2.710;2023-02-07T17:11:25;101815.91;;;11.46;100.00
54308;BME280;40208;39.778;2.710;2023-02-07T17:14:10;101814.28;;;11.40;100.00